createdAt,value
2023-05-14T00:02:16.683Z,46.24
2023-05-14T00:04:45.207Z,46.21
2023-05-14T00:07:13.742Z,46.30
2023-05-14T00:09:42.436Z,46.94
2023-05-14T00:12:11.088Z,47.21
2023-05-14T00:14:40.000Z,46.64
2023-05-14T00:17:09.861Z,47.03
2023-05-14T00:19:41.899Z,47.50
2023-05-14T00:22:10.451Z,46.91
2023-05-14T00:24:39.213Z,46.97
2023-05-14T00:27:07.827Z,47.38
2023-05-14T00:29:36.255Z,47.56
2023-05-14T00:32:05.196Z,47.87
2023-05-14T00:34:35.027Z,47.94
2023-05-14T00:37:03.574Z,48.33
2023-05-14T00:39:32.008Z,48.12
2023-05-14T00:42:00.535Z,48.34
2023-05-14T00:44:29.031Z,48.31
2023-05-14T00:46:57.603Z,48.92
2023-05-14T00:49:26.537Z,49.14
2023-05-14T00:51:59.188Z,49.44
2023-05-14T00:54:29.524Z,49.50
2023-05-14T00:56:58.575Z,49.37
2023-05-14T00:59:27.012Z,49.21
2023-05-14T01:01:55.889Z,49.72
2023-05-14T01:04:24.555Z,50.26
2023-05-14T01:06:56.607Z,49.60
2023-05-14T01:09:30.976Z,50.06
2023-05-14T01:12:04.982Z,50.05
2023-05-14T01:14:39.565Z,49.96
2023-05-14T01:17:12.231Z,50.66
2023-05-14T01:19:42.906Z,50.48
2023-05-14T01:22:13.425Z,50.44
2023-05-14T01:24:42.288Z,49.97
2023-05-14T01:27:18.691Z,49.53
2023-05-14T01:30:00.493Z,49.38
2023-05-14T01:32:31.701Z,49.58
2023-05-14T01:35:02.617Z,49.31
2023-05-14T01:37:34.510Z,48.75
2023-05-14T01:40:03.957Z,48.27
2023-05-14T01:42:34.379Z,48.07
2023-05-14T01:45:03.704Z,47.12
2023-05-14T01:47:33.731Z,46.58
2023-05-14T01:50:02.544Z,46.14
2023-05-14T01:52:34.142Z,46.04
2023-05-14T01:55:02.909Z,45.11
2023-05-14T01:57:33.031Z,45.03
2023-05-14T02:00:01.512Z,44.68
2023-05-14T02:02:34.802Z,44.37
2023-05-14T02:05:04.948Z,44.34
2023-05-14T02:07:36.857Z,43.75
2023-05-14T02:10:06.259Z,42.95
2023-05-14T02:12:35.176Z,41.95
2023-05-14T02:15:04.192Z,42.36
2023-05-14T02:17:35.701Z,41.67
2023-05-14T02:20:05.002Z,41.02
2023-05-14T02:22:42.347Z,40.92
2023-05-14T02:25:11.646Z,40.27
2023-05-14T02:27:40.579Z,39.85
2023-05-14T02:30:10.463Z,38.43
2023-05-14T02:32:40.617Z,37.65
2023-05-14T02:35:10.229Z,38.12
2023-05-14T02:37:40.569Z,35.83
2023-05-14T02:40:10.173Z,35.50
2023-05-14T02:42:38.677Z,33.37
2023-05-14T02:45:08.387Z,34.05
2023-05-14T02:47:38.249Z,34.74
2023-05-14T02:50:08.151Z,34.32
2023-05-14T02:52:36.984Z,34.72
2023-05-14T02:55:07.953Z,34.34
2023-05-14T02:57:39.486Z,34.27
2023-05-14T03:00:09.253Z,33.21
2023-05-14T03:02:38.757Z,35.01
2023-05-14T03:05:08.354Z,35.77
2023-05-14T03:07:36.612Z,33.27
2023-05-14T03:10:07.610Z,35.09
2023-05-14T03:12:36.182Z,37.32
2023-05-14T03:15:04.859Z,38.95
2023-05-14T03:17:33.312Z,34.83
2023-05-14T03:20:01.708Z,34.17
2023-05-14T03:22:31.817Z,34.95
2023-05-14T03:25:00.395Z,34.29
2023-05-14T03:27:30.315Z,34.30
2023-05-14T03:29:58.773Z,36.16
2023-05-14T03:32:27.395Z,37.50
2023-05-14T03:34:55.873Z,39.44
2023-05-14T03:37:24.791Z,40.45
2023-05-14T03:39:52.922Z,40.70
2023-05-14T03:42:21.301Z,42.55
2023-05-14T03:44:51.177Z,41.65
2023-05-14T03:47:19.776Z,41.41
2023-05-14T03:49:48.479Z,42.37
2023-05-14T03:52:17.396Z,41.43
2023-05-14T03:54:46.449Z,41.73
2023-05-14T03:57:16.771Z,42.01
2023-05-14T03:59:45.262Z,40.20
2023-05-14T04:02:16.211Z,41.18
2023-05-14T04:04:44.782Z,39.93
2023-05-14T04:07:13.304Z,41.42
2023-05-14T04:09:41.826Z,40.52
2023-05-14T04:12:10.841Z,40.39
2023-05-14T04:14:39.274Z,39.78
2023-05-14T04:17:07.755Z,40.61
2023-05-14T04:19:37.620Z,40.53
2023-05-14T04:22:06.338Z,39.62
2023-05-14T04:24:34.793Z,40.36
2023-05-14T04:27:03.236Z,40.99
2023-05-14T04:29:32.167Z,40.01
2023-05-14T04:32:01.066Z,40.42
2023-05-14T04:34:29.297Z,40.09
2023-05-14T04:36:59.066Z,40.30
2023-05-14T04:39:27.584Z,40.00
2023-05-14T04:41:56.008Z,40.33
2023-05-14T04:44:24.483Z,42.01
2023-05-14T04:46:53.167Z,41.31
2023-05-14T04:49:22.087Z,41.21
2023-05-14T04:51:50.263Z,39.82
2023-05-14T04:54:20.136Z,40.30
2023-05-14T04:56:48.904Z,39.01
2023-05-14T04:59:17.473Z,38.69
2023-05-14T05:01:46.457Z,38.89
2023-05-14T05:04:15.109Z,39.09
2023-05-14T05:06:43.640Z,38.90
2023-05-14T05:09:12.474Z,37.75
2023-05-14T05:11:42.142Z,37.57
2023-05-14T05:14:10.630Z,38.45
2023-05-14T05:16:39.138Z,37.65
2023-05-14T05:19:07.723Z,38.18
2023-05-14T05:21:36.528Z,36.63
2023-05-14T05:24:05.322Z,36.29
2023-05-14T05:26:37.000Z,37.96
2023-05-14T05:29:07.230Z,37.08
2023-05-14T05:31:36.813Z,36.44
2023-05-14T05:34:05.562Z,36.40
2023-05-14T05:36:33.969Z,35.52
2023-05-14T05:39:02.423Z,35.68
2023-05-14T05:41:31.392Z,35.74
2023-05-14T05:43:59.948Z,36.10
2023-05-14T05:46:29.906Z,37.15
2023-05-14T05:48:58.713Z,35.72
2023-05-14T05:51:27.416Z,36.44
2023-05-14T05:53:56.056Z,36.10
2023-05-14T05:56:24.408Z,36.56
2023-05-14T05:58:53.059Z,35.71
2023-05-14T06:01:21.656Z,36.35
2023-05-14T06:03:51.607Z,35.36
2023-05-14T06:06:20.196Z,34.95
2023-05-14T06:08:48.851Z,33.70
2023-05-14T06:11:17.416Z,33.10
2023-05-14T06:13:45.896Z,34.75
2023-05-14T06:16:14.535Z,35.26
2023-05-14T06:18:43.171Z,33.62
2023-05-14T06:21:13.098Z,34.03
2023-05-14T06:23:41.840Z,33.33
2023-05-14T06:26:10.374Z,33.08
2023-05-14T06:28:38.857Z,33.45
2023-05-14T06:31:07.444Z,32.34
2023-05-14T06:33:35.942Z,32.40
2023-05-14T06:36:06.752Z,32.40
2023-05-14T06:38:36.777Z,32.28
2023-05-14T06:41:05.365Z,32.43
2023-05-14T06:43:33.828Z,31.81
2023-05-14T06:46:05.088Z,31.22
2023-05-14T06:48:33.633Z,31.31
2023-05-14T06:51:04.107Z,30.89
2023-05-14T06:53:32.758Z,31.35
2023-05-14T06:56:02.636Z,31.99
2023-05-14T06:58:33.481Z,32.66
2023-05-14T07:01:02.156Z,32.76
2023-05-14T07:03:30.669Z,32.80
2023-05-14T07:05:59.152Z,32.68
2023-05-14T07:08:27.726Z,31.86
2023-05-14T07:10:57.469Z,31.46
2023-05-14T07:13:28.880Z,31.49
2023-05-14T07:15:57.559Z,30.96
2023-05-14T07:18:26.203Z,29.16
2023-05-14T07:20:54.638Z,29.34
2023-05-14T07:23:23.203Z,30.28
2023-05-14T07:25:51.731Z,30.84
2023-05-14T07:28:20.257Z,29.29
2023-05-14T07:30:50.091Z,29.29
2023-05-14T07:33:18.586Z,30.34
2023-05-14T07:35:47.114Z,30.69
2023-05-14T07:38:15.967Z,32.42
2023-05-14T07:40:44.604Z,32.85
2023-05-14T07:43:13.038Z,31.41
2023-05-14T07:45:41.564Z,30.73
2023-05-14T07:48:11.937Z,28.89
2023-05-14T07:50:40.616Z,29.20
2023-05-14T07:53:09.221Z,29.49
2023-05-14T07:55:38.221Z,30.35
2023-05-14T07:58:06.756Z,32.29
2023-05-14T08:00:35.254Z,32.72
2023-05-14T08:03:03.898Z,31.71
2023-05-14T08:05:34.240Z,29.50
2023-05-14T08:08:03.298Z,29.73
2023-05-14T08:10:32.251Z,29.28
2023-05-14T08:13:01.763Z,29.82
2023-05-14T08:15:31.914Z,30.24
2023-05-14T08:18:03.746Z,30.58
2023-05-14T08:20:33.880Z,29.25
2023-05-14T08:23:02.650Z,29.45
2023-05-14T08:25:31.223Z,30.53
2023-05-14T08:27:59.990Z,30.31
2023-05-14T08:30:28.670Z,30.39
2023-05-14T08:32:57.516Z,30.66
2023-05-14T08:35:26.278Z,29.27
2023-05-14T08:37:57.104Z,29.25
2023-05-14T08:40:25.855Z,30.20
2023-05-14T08:42:57.656Z,28.61
2023-05-14T08:45:34.371Z,29.62
2023-05-14T08:48:09.705Z,28.23
2023-05-14T08:50:38.640Z,29.30
2023-05-14T08:53:08.222Z,28.80
2023-05-14T08:55:38.498Z,28.97
2023-05-14T08:58:09.383Z,29.11
2023-05-14T09:00:40.265Z,30.29
2023-05-14T09:06:26.246Z,29.98
2023-05-14T09:08:57.413Z,29.81
2023-05-14T09:11:26.158Z,29.60
2023-05-14T09:13:54.660Z,29.78
2023-05-14T09:16:26.217Z,29.56
2023-05-14T09:18:56.396Z,28.43
2023-05-14T09:21:25.290Z,28.07
2023-05-14T09:24:00.539Z,27.78
2023-05-14T09:26:32.705Z,28.10
2023-05-14T09:29:02.159Z,28.44
2023-05-14T09:31:32.120Z,29.15
2023-05-14T09:34:02.168Z,28.60
2023-05-14T09:36:31.734Z,29.73
2023-05-14T09:39:04.866Z,29.64
2023-05-14T09:41:33.521Z,30.00
2023-05-14T09:44:03.025Z,29.21
2023-05-14T09:46:32.808Z,28.84
2023-05-14T09:49:01.815Z,27.74
2023-05-14T09:51:32.806Z,28.91
2023-05-14T09:54:04.429Z,28.80
2023-05-14T09:56:33.811Z,29.06
2023-05-14T09:59:02.373Z,29.58
2023-05-14T10:01:33.064Z,30.34
2023-05-14T10:04:04.081Z,30.30
2023-05-14T10:06:37.691Z,30.26
2023-05-14T10:09:14.261Z,29.89
2023-05-14T10:11:45.740Z,30.61
2023-05-14T10:14:18.735Z,29.39
2023-05-14T10:16:52.028Z,29.63
2023-05-14T10:19:24.669Z,29.72
2023-05-14T10:21:57.394Z,28.83
2023-05-14T10:24:29.469Z,28.70
2023-05-14T10:27:01.188Z,28.52
2023-05-14T10:29:37.379Z,29.10
2023-05-14T10:32:07.325Z,29.80
2023-05-14T10:34:42.264Z,29.31
2023-05-14T10:37:13.015Z,29.48
2023-05-14T10:39:44.975Z,29.50
2023-05-14T10:42:14.857Z,29.11
2023-05-14T10:44:50.040Z,29.61
2023-05-14T10:47:19.287Z,29.32
2023-05-14T10:49:50.265Z,30.57
2023-05-14T10:52:20.940Z,29.85
2023-05-14T10:54:55.621Z,29.20
2023-05-14T10:57:26.380Z,30.30
2023-05-14T10:59:58.968Z,30.05
2023-05-14T11:02:29.055Z,30.07
2023-05-14T11:04:59.744Z,30.31
2023-05-14T11:07:32.492Z,30.74
2023-05-14T11:10:04.450Z,30.44
2023-05-14T11:12:33.773Z,30.58
2023-05-14T11:15:04.078Z,28.17
2023-05-14T11:17:34.398Z,28.99
2023-05-14T11:20:02.718Z,29.15
2023-05-14T11:22:32.753Z,30.53
2023-05-14T11:25:02.817Z,29.85
2023-05-14T11:27:35.609Z,29.75
2023-05-14T11:30:04.725Z,30.55
2023-05-14T11:32:36.677Z,31.83
2023-05-14T11:35:09.431Z,30.68
2023-05-14T11:37:37.993Z,30.92
2023-05-14T11:40:11.112Z,29.93
2023-05-14T11:42:40.403Z,29.62
2023-05-14T11:45:15.590Z,29.27
2023-05-14T11:47:44.356Z,29.36
2023-05-14T11:50:12.642Z,28.19
2023-05-14T11:52:42.222Z,28.07
2023-05-14T11:55:16.088Z,29.41
2023-05-14T11:57:44.992Z,30.98
2023-05-14T12:00:22.217Z,30.10
2023-05-14T12:02:51.332Z,29.23
2023-05-14T12:05:20.528Z,28.05
2023-05-14T12:07:52.161Z,28.78
2023-05-14T12:10:22.266Z,29.92
2023-05-14T12:12:51.019Z,30.73
2023-05-14T12:15:19.382Z,29.91
2023-05-14T12:17:52.058Z,30.93
2023-05-14T12:20:20.994Z,29.67
2023-05-14T12:22:49.318Z,28.79
2023-05-14T12:25:17.731Z,30.06
2023-05-14T12:27:49.619Z,30.16
2023-05-14T12:30:21.918Z,30.85
2023-05-14T12:32:53.054Z,30.25
2023-05-14T12:35:26.485Z,30.96
2023-05-14T12:37:55.776Z,30.04
2023-05-14T12:40:25.718Z,29.15
2023-05-14T12:42:56.864Z,30.50
2023-05-14T12:45:26.050Z,29.67
2023-05-14T12:47:54.613Z,29.72
2023-05-14T12:50:23.466Z,30.91
2023-05-14T12:52:52.114Z,30.05
2023-05-14T12:55:20.661Z,29.92
2023-05-14T12:57:49.389Z,29.61
2023-05-14T13:00:19.944Z,30.85
2023-05-14T13:02:48.680Z,30.01
2023-05-14T13:05:18.295Z,30.10
2023-05-14T13:07:46.923Z,30.05
2023-05-14T13:10:15.490Z,30.99
2023-05-14T13:12:43.958Z,31.91
2023-05-14T13:15:13.128Z,31.22
2023-05-14T13:17:43.033Z,33.18
2023-05-14T13:20:12.277Z,33.62
2023-05-14T13:22:41.424Z,32.86
2023-05-14T13:25:10.925Z,32.94
2023-05-14T13:27:39.981Z,33.49
2023-05-14T13:30:09.953Z,33.05
2023-05-14T13:32:39.641Z,32.38
2023-05-14T13:35:12.177Z,32.47
2023-05-14T13:37:41.119Z,32.39
2023-05-14T13:40:11.114Z,31.53
2023-05-14T13:42:41.103Z,31.53
2023-05-14T13:45:10.247Z,31.93
2023-05-14T13:47:41.358Z,31.32
2023-05-14T13:50:12.281Z,32.16
2023-05-14T13:52:41.078Z,33.38
2023-05-14T13:55:11.471Z,31.14
2023-05-14T13:57:43.432Z,31.03
2023-05-14T14:00:13.689Z,31.29
2023-05-14T14:02:42.781Z,30.42
2023-05-14T14:05:13.025Z,29.97
2023-05-14T14:07:41.970Z,30.49
2023-05-14T14:10:11.818Z,31.12
2023-05-14T14:12:40.639Z,31.68
2023-05-14T14:15:09.404Z,31.64
2023-05-14T14:17:39.216Z,32.07
2023-05-14T14:20:09.827Z,32.11
2023-05-14T14:22:41.708Z,31.95
2023-05-14T14:25:12.290Z,32.87
2023-05-14T14:27:43.902Z,33.19
2023-05-14T14:30:15.809Z,32.66
2023-05-14T14:32:45.712Z,32.01
2023-05-14T14:35:15.667Z,32.54
2023-05-14T14:37:49.414Z,33.95
2023-05-14T14:40:18.755Z,33.39
2023-05-14T14:42:48.781Z,33.57
2023-05-14T14:45:20.026Z,33.77
2023-05-14T14:47:50.343Z,34.22
2023-05-14T14:50:18.999Z,33.76
2023-05-14T14:52:49.027Z,32.95
2023-05-14T14:55:18.569Z,33.07
2023-05-14T14:57:47.192Z,33.71
2023-05-14T15:00:17.230Z,33.99
2023-05-14T15:02:46.083Z,33.68
2023-05-14T15:05:14.608Z,32.13
2023-05-14T15:07:46.315Z,31.38
2023-05-14T15:10:16.403Z,30.97
2023-05-14T15:12:45.311Z,31.24
2023-05-14T15:15:13.809Z,31.71
2023-05-14T15:17:42.561Z,30.97
2023-05-14T15:20:12.261Z,31.48
2023-05-14T15:22:41.564Z,31.50
2023-05-14T15:25:12.829Z,31.64
2023-05-14T15:27:42.821Z,32.50
2023-05-14T15:30:12.474Z,33.21
2023-05-14T15:32:41.506Z,33.05
2023-05-14T15:35:10.666Z,32.31
2023-05-14T15:37:41.217Z,32.78
2023-05-14T15:40:11.145Z,33.10
2023-05-14T15:42:46.342Z,33.60
2023-05-14T15:45:19.329Z,33.41
2023-05-14T15:47:47.996Z,33.43
2023-05-14T15:50:16.630Z,33.10
2023-05-14T15:52:45.301Z,33.36
2023-05-14T15:55:13.797Z,33.71
2023-05-14T15:57:42.314Z,33.98
2023-05-14T16:00:11.989Z,34.68
2023-05-14T16:02:42.626Z,35.00
2023-05-14T16:05:11.601Z,35.20
2023-05-14T16:07:40.467Z,35.76
2023-05-14T16:10:10.405Z,35.59
2023-05-14T16:12:39.461Z,35.86
2023-05-14T16:15:09.372Z,35.76
2023-05-14T16:17:41.916Z,35.44
2023-05-14T16:20:11.650Z,35.64
2023-05-14T16:22:40.393Z,35.98
2023-05-14T16:25:09.662Z,36.13
2023-05-14T16:27:38.153Z,36.19
2023-05-14T16:30:08.363Z,36.13
2023-05-14T16:32:42.110Z,36.13
2023-05-14T16:35:11.668Z,36.56
2023-05-14T16:37:40.863Z,37.00
2023-05-14T16:40:11.831Z,37.11
2023-05-14T16:42:40.629Z,37.18
2023-05-14T16:45:10.448Z,37.58
2023-05-14T16:47:41.351Z,37.71
2023-05-14T16:50:12.133Z,37.71
2023-05-14T16:52:42.297Z,37.73
2023-05-14T16:55:11.208Z,37.86
2023-05-14T16:57:39.455Z,37.11
2023-05-14T17:00:10.026Z,37.65
2023-05-14T17:02:39.205Z,38.03
2023-05-14T17:05:09.020Z,38.55
2023-05-14T17:07:40.265Z,38.92
2023-05-14T17:10:09.926Z,39.26
2023-05-14T17:12:38.488Z,39.38
2023-05-14T17:15:08.540Z,39.87
2023-05-14T17:17:37.302Z,39.82
2023-05-14T17:20:06.939Z,39.95
2023-05-14T17:22:35.608Z,39.52
2023-05-14T17:25:06.314Z,39.16
2023-05-14T17:27:36.282Z,39.01
2023-05-14T17:30:05.361Z,39.13
2023-05-14T17:32:37.490Z,38.43
2023-05-14T17:35:06.518Z,38.57
2023-05-14T17:37:36.593Z,38.37
2023-05-14T17:40:08.740Z,39.03
2023-05-14T17:42:37.434Z,39.26
2023-05-14T17:45:06.907Z,39.03
2023-05-14T17:47:36.221Z,39.22
2023-05-14T17:50:06.356Z,39.00
2023-05-14T17:52:41.239Z,39.12
2023-05-14T17:55:11.763Z,38.68
2023-05-14T17:57:41.823Z,39.19
2023-05-14T18:00:11.815Z,39.26
2023-05-14T18:02:40.834Z,39.27
2023-05-14T18:05:10.200Z,39.71
2023-05-14T18:07:38.769Z,39.73
2023-05-14T18:10:08.505Z,40.11
2023-05-14T18:12:38.680Z,40.87
2023-05-14T18:15:08.560Z,40.71
2023-05-14T18:17:38.410Z,40.95
2023-05-14T18:20:08.645Z,41.44
2023-05-14T18:22:38.020Z,41.04
2023-05-14T18:25:10.821Z,41.11
2023-05-14T18:27:44.494Z,40.92
2023-05-14T18:30:14.973Z,41.28
2023-05-14T18:32:45.074Z,41.27
2023-05-14T18:35:14.384Z,41.42
2023-05-14T18:37:43.077Z,41.61
2023-05-14T18:40:16.894Z,41.46
2023-05-14T18:42:48.512Z,41.37
2023-05-14T18:45:23.048Z,41.79
2023-05-14T18:47:52.606Z,42.23
2023-05-14T18:50:25.215Z,42.13
2023-05-14T18:52:53.931Z,42.30
2023-05-14T18:55:23.168Z,42.57
2023-05-14T18:57:53.298Z,42.62
2023-05-14T19:00:22.611Z,42.53
2023-05-14T19:02:51.564Z,42.48
2023-05-14T19:05:20.529Z,42.94
2023-05-14T19:07:49.610Z,42.96
2023-05-14T19:10:17.941Z,41.92
2023-05-14T19:12:50.492Z,42.73
2023-05-14T19:15:20.586Z,43.03
2023-05-14T19:17:49.473Z,43.10
2023-05-14T19:20:18.077Z,41.91
2023-05-14T19:22:46.720Z,42.94
2023-05-14T19:25:15.245Z,43.02
2023-05-14T19:27:44.939Z,43.04
2023-05-14T19:30:21.101Z,42.87
2023-05-14T19:32:49.803Z,42.85
2023-05-14T19:35:18.651Z,42.61
2023-05-14T19:37:47.786Z,42.96
2023-05-14T19:40:16.320Z,43.11
2023-05-14T19:42:44.791Z,43.07
2023-05-14T19:45:13.921Z,43.66
2023-05-14T19:47:44.118Z,43.74
2023-05-14T19:50:12.785Z,44.04
2023-05-14T19:52:41.403Z,44.05
2023-05-14T19:55:11.762Z,44.37
2023-05-14T19:57:40.388Z,44.58
2023-05-14T20:00:10.681Z,44.53
2023-05-14T20:02:40.811Z,44.45
2023-05-14T20:05:11.652Z,44.27
2023-05-14T20:07:40.593Z,44.04
2023-05-14T20:10:10.416Z,44.34
2023-05-14T20:12:39.068Z,44.29
2023-05-14T20:15:07.876Z,43.79
2023-05-14T20:17:36.387Z,44.72
2023-05-14T20:20:07.098Z,44.86
2023-05-14T20:22:38.359Z,45.06
2023-05-14T20:25:07.584Z,45.12
2023-05-14T20:27:36.074Z,45.11
2023-05-14T20:30:04.773Z,45.46
2023-05-14T20:32:33.845Z,45.62
2023-05-14T20:35:03.142Z,45.59
2023-05-14T20:37:33.825Z,45.56
2023-05-14T20:40:05.219Z,45.86
2023-05-14T20:42:35.296Z,45.50
2023-05-14T20:45:03.893Z,45.64
2023-05-14T20:47:34.267Z,46.01
2023-05-14T20:50:03.280Z,46.54
2023-05-14T20:52:33.142Z,46.30
2023-05-14T20:55:07.739Z,46.76
2023-05-14T20:57:36.524Z,46.72
2023-05-14T21:00:08.432Z,47.16
2023-05-14T21:02:41.077Z,46.92
2023-05-14T21:05:10.657Z,46.95
2023-05-14T21:07:39.553Z,46.35
2023-05-14T21:10:11.182Z,47.00
2023-05-14T21:12:40.636Z,47.34
2023-05-14T21:15:44.864Z,48.09
2023-05-14T21:18:42.272Z,47.86
2023-05-14T21:21:12.625Z,47.82
2023-05-14T21:23:41.198Z,47.89
2023-05-14T21:26:11.518Z,47.56
2023-05-14T21:28:40.044Z,47.92
2023-05-14T21:31:08.743Z,48.13
2023-05-14T21:33:37.320Z,47.87
2023-05-14T21:36:06.512Z,47.96
2023-05-14T21:38:35.297Z,47.76
2023-05-14T21:41:03.931Z,47.86
2023-05-14T21:43:33.835Z,48.04
2023-05-14T21:46:02.480Z,48.18
2023-05-14T21:48:30.938Z,48.58
2023-05-14T21:50:59.383Z,48.32
2023-05-14T21:53:28.033Z,48.07
2023-05-14T21:55:56.828Z,48.05
2023-05-14T21:58:25.372Z,47.65
2023-05-14T22:00:55.380Z,47.67
2023-05-14T22:03:24.043Z,48.29
2023-05-14T22:05:53.327Z,47.88
2023-05-14T22:08:21.834Z,48.43
2023-05-14T22:10:50.340Z,48.53
2023-05-14T22:13:18.874Z,48.29
2023-05-14T22:15:47.432Z,48.57
2023-05-14T22:18:18.328Z,48.95
2023-05-14T22:20:48.276Z,49.15
2023-05-14T22:23:16.783Z,49.32
2023-05-14T22:25:45.298Z,49.38
2023-05-14T22:28:13.766Z,49.48
2023-05-14T22:30:42.298Z,49.59
2023-05-14T22:33:10.799Z,49.55
2023-05-14T22:35:40.979Z,49.78
2023-05-14T22:38:09.549Z,49.91
2023-05-14T22:40:37.962Z,50.25
2023-05-14T22:43:08.759Z,50.27
2023-05-14T22:45:37.297Z,50.02
2023-05-14T22:48:06.052Z,50.16
2023-05-14T22:50:34.338Z,48.23
2023-05-14T22:53:04.146Z,49.78
2023-05-14T22:55:33.188Z,50.60
2023-05-14T22:58:01.687Z,51.06
2023-05-14T23:00:30.396Z,50.82
2023-05-14T23:02:58.571Z,48.64
2023-05-14T23:05:27.298Z,51.05
2023-05-14T23:07:58.740Z,51.54
2023-05-14T23:10:28.989Z,52.43
2023-05-14T23:12:57.515Z,52.57
2023-05-14T23:15:26.293Z,52.49
2023-05-14T23:17:55.541Z,52.46
2023-05-14T23:20:24.138Z,52.77
2023-05-14T23:22:53.130Z,52.90
2023-05-14T23:25:21.640Z,52.95
2023-05-14T23:27:51.521Z,53.37
2023-05-14T23:30:20.058Z,53.50
2023-05-14T23:32:48.471Z,53.42
2023-05-14T23:35:17.089Z,53.42
2023-05-14T23:37:47.494Z,54.16
2023-05-14T23:40:26.183Z,53.40
2023-05-14T23:42:57.498Z,53.57
2023-05-14T23:45:26.358Z,53.75
2023-05-14T23:47:59.885Z,53.33
2023-05-14T23:50:28.591Z,53.14
2023-05-14T23:52:57.521Z,53.53
2023-05-14T23:55:26.429Z,53.83
2023-05-14T23:57:56.585Z,53.67
